createdAt,value
2022-09-12T15:00:06.762Z,57.42
2022-09-12T15:01:07.748Z,58.22
2022-09-12T15:02:07.669Z,59.01
2022-09-12T15:03:07.685Z,58.22
2022-09-12T15:04:07.855Z,56.32
2022-09-12T15:05:07.764Z,54.93
2022-09-12T15:06:07.637Z,56.72
2022-09-12T15:07:08.963Z,57.22
2022-09-12T15:08:07.641Z,59.01
2022-09-12T15:09:07.604Z,58.61
2022-09-12T15:10:07.562Z,58.51
2022-09-12T15:11:08.695Z,58.61
2022-09-12T15:12:07.527Z,57.02
2022-09-12T15:13:07.566Z,56.52
2022-09-12T15:14:07.599Z,56.72
2022-09-12T15:15:07.531Z,56.62
2022-09-12T15:16:07.662Z,58.81
2022-09-12T15:17:07.529Z,57.52
2022-09-12T15:18:07.521Z,59.91
2022-09-12T15:19:07.522Z,57.22
2022-09-12T15:20:07.512Z,58.81
2022-09-12T15:21:07.471Z,58.84
2022-09-12T15:22:07.505Z,59.44
2022-09-12T15:23:08.025Z,56.35
2022-09-12T15:24:07.674Z,56.65
2022-09-12T15:25:09.256Z,57.45
2022-09-12T15:26:07.917Z,60.73
2022-09-12T15:27:07.986Z,58.54
2022-09-12T15:28:07.462Z,55.35
2022-09-12T15:29:07.402Z,57.64
2022-09-12T15:30:07.521Z,57.24
2022-09-12T15:31:07.534Z,56.85
2022-09-12T15:32:07.468Z,55.35
2022-09-12T15:33:07.404Z,57.28
2022-09-12T15:34:07.561Z,56.18
2022-09-12T15:35:07.278Z,57.67
2022-09-12T15:36:07.389Z,57.77
2022-09-12T15:37:07.397Z,58.57
2022-09-12T15:38:07.421Z,55.38
2022-09-12T15:39:07.354Z,56.57
2022-09-12T15:40:07.488Z,58.57
2022-09-12T15:41:07.362Z,58.97
2022-09-12T15:42:07.324Z,56.87
2022-09-12T15:43:07.628Z,55.68
2022-09-12T15:44:07.392Z,58.57
2022-09-12T15:45:07.268Z,56.98
2022-09-12T15:46:07.442Z,57.07
2022-09-12T15:47:07.266Z,59.36
2022-09-12T15:48:07.274Z,60.16
2022-09-12T15:49:07.259Z,58.17
2022-09-12T15:50:07.313Z,60.36
2022-09-12T15:51:07.196Z,60.19
2022-09-12T15:52:07.228Z,60.79
2022-09-12T15:53:07.239Z,62.29
2022-09-12T15:54:07.234Z,57.00
2022-09-12T15:55:07.146Z,57.10
2022-09-12T15:56:07.193Z,58.70
2022-09-12T15:57:07.227Z,60.39
2022-09-12T15:58:07.585Z,61.39
2022-09-12T15:59:07.137Z,61.71
2022-09-12T16:00:07.165Z,59.82
2022-09-12T16:01:07.122Z,61.61
2022-09-12T16:02:07.227Z,61.71
2022-09-12T16:03:07.176Z,64.31
2022-09-12T16:04:07.076Z,64.41
2022-09-12T16:05:07.115Z,61.11
2022-09-12T16:06:07.108Z,61.91
2022-09-12T16:07:07.025Z,58.55
2022-09-12T16:08:07.066Z,60.05
2022-09-12T16:09:07.042Z,62.64
2022-09-12T16:10:07.122Z,63.44
2022-09-12T16:11:07.047Z,63.74
2022-09-12T16:12:06.988Z,61.85
2022-09-12T16:13:06.996Z,62.45
2022-09-12T16:14:07.071Z,61.65
2022-09-12T16:15:06.990Z,62.97
2022-09-12T16:16:07.019Z,64.87
2022-09-12T16:17:07.020Z,64.67
2022-09-12T16:18:06.945Z,65.17
2022-09-12T16:19:06.921Z,66.66
2022-09-12T16:20:06.960Z,65.56
2022-09-12T16:21:09.079Z,67.66
2022-09-12T16:22:06.922Z,68.40
2022-09-12T16:23:06.835Z,70.09
2022-09-12T16:24:06.883Z,64.70
2022-09-12T16:25:06.923Z,66.39
2022-09-12T16:26:06.907Z,66.80
2022-09-12T16:27:06.835Z,66.80
2022-09-12T16:28:07.031Z,67.19
2022-09-12T16:29:06.874Z,67.93
2022-09-12T16:30:06.880Z,67.43
2022-09-12T16:31:06.913Z,66.43
2022-09-12T16:32:06.922Z,67.13
2022-09-12T16:33:06.830Z,65.73
2022-09-12T16:34:06.826Z,64.43
2022-09-12T16:35:06.795Z,66.43
2022-09-12T16:36:06.758Z,70.42
2022-09-12T16:37:06.752Z,69.13
2022-09-12T16:38:06.795Z,63.23
2022-09-12T16:39:06.750Z,68.03
2022-09-12T16:40:06.770Z,69.13
2022-09-12T16:41:06.713Z,70.62
2022-09-12T16:42:06.710Z,70.62
2022-09-12T16:43:06.679Z,71.03
2022-09-12T16:44:06.718Z,70.32
2022-09-12T16:45:06.682Z,70.23
2022-09-12T16:46:06.770Z,69.23
2022-09-12T16:47:06.754Z,70.36
2022-09-12T16:48:06.669Z,71.46
2022-09-12T16:49:06.642Z,72.16
2022-09-12T16:50:06.659Z,71.66
2022-09-12T16:51:06.659Z,73.36
2022-09-12T16:52:06.594Z,73.46
2022-09-12T16:53:06.600Z,74.16
2022-09-12T16:54:06.634Z,74.46
2022-09-12T16:55:06.649Z,73.79
2022-09-12T16:56:06.629Z,74.39
2022-09-12T16:57:06.546Z,73.19
2022-09-12T16:58:06.591Z,73.09
2022-09-12T16:59:06.589Z,74.59
2022-09-12T17:00:06.564Z,74.59
2022-09-12T17:01:06.516Z,75.13
2022-09-12T17:02:06.673Z,75.02
2022-09-12T17:03:06.549Z,75.43
2022-09-12T17:04:06.509Z,76.43
2022-09-12T17:05:06.475Z,75.52
2022-09-12T17:06:06.512Z,75.13
2022-09-12T17:07:06.474Z,74.87
2022-09-12T17:08:06.477Z,76.56
2022-09-12T17:09:06.470Z,77.76
2022-09-12T17:10:06.434Z,75.16
2022-09-12T17:11:06.429Z,75.87
2022-09-12T17:12:06.345Z,76.80
2022-09-12T17:13:06.386Z,77.80
2022-09-12T17:14:07.300Z,77.30
2022-09-12T17:15:06.394Z,76.90
2022-09-12T17:16:06.584Z,78.00
2022-09-12T17:17:06.312Z,78.54
2022-09-12T17:18:06.403Z,77.64
2022-09-12T17:19:06.377Z,78.24
2022-09-12T17:20:06.459Z,79.44
2022-09-12T17:21:06.306Z,79.54
2022-09-12T17:22:06.349Z,78.58
2022-09-12T17:23:09.611Z,78.48
2022-09-12T17:24:06.312Z,77.98
2022-09-12T17:25:06.267Z,78.48
2022-09-12T17:26:06.383Z,78.88
2022-09-12T17:27:06.279Z,78.81
2022-09-12T17:28:06.315Z,80.02
2022-09-12T17:29:06.232Z,80.22
2022-09-12T17:30:06.269Z,79.72
2022-09-12T17:31:06.289Z,80.42
2022-09-12T17:32:06.586Z,80.46
2022-09-12T17:33:06.245Z,80.66
2022-09-12T17:34:06.186Z,80.66
2022-09-12T17:35:06.198Z,80.46
2022-09-12T17:36:06.166Z,81.50
2022-09-12T17:37:06.302Z,81.80
2022-09-12T17:38:06.159Z,81.70
2022-09-12T17:39:06.341Z,82.00
2022-09-12T17:40:06.401Z,82.00
2022-09-12T17:41:06.264Z,81.24
2022-09-12T17:42:06.056Z,81.34
2022-09-12T17:43:06.140Z,81.44
2022-09-12T17:44:06.414Z,81.14
2022-09-12T17:45:06.106Z,81.84
2022-09-12T17:46:06.336Z,82.18
2022-09-12T17:47:06.047Z,82.98
2022-09-12T17:48:06.134Z,83.09
2022-09-12T17:49:06.185Z,83.49
2022-09-12T17:50:30.305Z,83.39
2022-09-12T17:51:05.990Z,83.93
2022-09-12T17:52:06.064Z,84.13
2022-09-12T17:53:06.110Z,84.33
2022-09-12T17:54:06.057Z,84.53
2022-09-12T17:55:06.071Z,84.13
2022-09-12T17:56:06.209Z,84.17
2022-09-12T17:57:05.906Z,84.07
2022-09-12T17:58:05.978Z,83.87
2022-09-12T17:59:06.067Z,84.27
2022-09-12T18:00:05.906Z,84.57
2022-09-12T18:01:06.018Z,84.71
2022-09-12T18:02:06.206Z,84.71
2022-09-12T18:03:06.075Z,84.61
2022-09-12T18:04:05.995Z,84.91
2022-09-12T18:05:05.957Z,84.81
2022-09-12T18:06:05.867Z,85.02
2022-09-12T18:07:05.909Z,85.36
2022-09-12T18:08:06.093Z,85.86
2022-09-12T18:09:06.001Z,86.26
2022-09-12T18:10:05.913Z,85.86
2022-09-12T18:11:05.983Z,85.76
2022-09-12T18:12:05.828Z,86.26
2022-09-12T18:13:05.782Z,86.51
2022-09-12T18:14:05.898Z,86.51
2022-09-12T18:15:05.897Z,86.81
2022-09-12T18:16:05.967Z,86.81
2022-09-12T18:17:05.770Z,87.82
2022-09-12T18:18:05.897Z,87.82
2022-09-12T18:19:05.932Z,87.82
2022-09-12T18:20:05.752Z,88.16
2022-09-12T18:21:05.670Z,88.56
2022-09-12T18:22:05.666Z,88.26
2022-09-12T18:23:05.664Z,88.36
2022-09-12T18:24:06.430Z,88.26
2022-09-12T18:25:05.618Z,87.96
2022-09-12T18:26:05.663Z,88.26
2022-09-12T18:27:05.666Z,88.81
2022-09-12T18:28:09.061Z,89.11
2022-09-12T18:29:05.657Z,89.21
2022-09-12T18:30:20.450Z,89.31
2022-09-12T18:31:05.657Z,89.11
2022-09-12T18:32:05.628Z,89.01
2022-09-12T18:33:05.650Z,89.11
2022-09-12T18:34:05.540Z,89.01
2022-09-12T18:35:05.693Z,89.21
2022-09-12T18:36:05.544Z,89.21
2022-09-12T18:37:05.501Z,89.21
2022-09-12T18:38:06.153Z,88.90
2022-09-12T18:39:05.577Z,90.06
2022-09-12T18:40:05.735Z,89.95
2022-09-12T18:41:05.504Z,89.65
2022-09-12T18:42:05.690Z,89.75
2022-09-12T18:43:05.469Z,89.86
2022-09-12T18:44:05.495Z,89.55
2022-09-12T18:45:05.424Z,89.55
2022-09-12T18:46:05.741Z,89.75
2022-09-12T18:47:05.428Z,90.06
2022-09-12T18:48:05.452Z,90.36
2022-09-12T18:49:05.426Z,91.01
2022-09-12T18:50:05.459Z,91.11
2022-09-12T18:51:05.585Z,91.01
2022-09-12T18:52:05.424Z,91.21
2022-09-12T18:53:05.356Z,91.11
2022-09-12T18:54:05.581Z,91.11
2022-09-12T18:55:05.572Z,91.31
2022-09-12T18:56:05.446Z,91.31
2022-09-12T18:57:05.338Z,91.31
2022-09-12T18:58:05.298Z,91.01
2022-09-12T18:59:05.351Z,91.01
2022-09-12T19:00:08.272Z,91.31
2022-09-12T19:01:05.362Z,91.31
2022-09-12T19:02:05.360Z,91.21
2022-09-12T19:03:05.477Z,91.51
2022-09-12T19:04:05.611Z,91.41
2022-09-12T19:05:05.257Z,91.61
2022-09-12T19:06:05.231Z,91.82
2022-09-12T19:07:05.274Z,91.82
2022-09-12T19:08:05.323Z,91.41
2022-09-12T19:09:07.864Z,91.21
2022-09-12T19:10:05.199Z,91.01
2022-09-12T19:11:05.183Z,91.11
2022-09-12T19:12:05.283Z,91.21
2022-09-12T19:13:05.178Z,91.11
2022-09-12T19:14:05.218Z,91.01
2022-09-12T19:15:05.129Z,91.82
2022-09-12T19:16:05.261Z,91.82
2022-09-12T19:17:05.343Z,92.22
2022-09-12T19:18:05.286Z,92.02
2022-09-12T19:19:05.254Z,91.51
2022-09-12T19:20:05.240Z,90.91
2022-09-12T19:21:05.088Z,90.81
2022-09-12T19:22:05.249Z,90.81
2022-09-12T19:23:05.118Z,91.11
2022-09-12T19:24:05.098Z,91.31
2022-09-12T19:25:05.049Z,91.61
2022-09-12T19:26:05.102Z,91.51
2022-09-12T19:27:05.044Z,91.61
2022-09-12T19:28:05.122Z,91.61
2022-09-12T19:29:05.016Z,92.22
2022-09-12T19:30:05.010Z,92.22
2022-09-12T19:31:05.115Z,92.52
2022-09-12T19:32:05.016Z,92.32
2022-09-12T19:33:04.969Z,92.32
2022-09-12T19:34:04.975Z,92.93
2022-09-12T19:35:04.977Z,92.22
2022-09-12T19:36:04.971Z,92.02
2022-09-12T19:37:04.937Z,92.02
2022-09-12T19:38:04.925Z,92.32
2022-09-12T19:39:04.922Z,92.52
2022-09-12T19:40:05.050Z,92.46
2022-09-12T19:41:04.903Z,92.26
2022-09-12T19:42:04.887Z,92.46
2022-09-12T19:43:04.884Z,92.36
2022-09-12T19:44:04.998Z,92.66
2022-09-12T19:45:05.014Z,92.46
2022-09-12T19:46:04.886Z,92.66
2022-09-12T19:47:04.856Z,92.97
2022-09-12T19:48:04.842Z,92.97
2022-09-12T19:49:04.801Z,92.86
2022-09-12T19:50:04.836Z,93.17
2022-09-12T19:51:04.968Z,93.17
2022-09-12T19:52:04.804Z,93.48
2022-09-12T19:53:04.780Z,93.27
2022-09-12T19:54:04.814Z,93.77
2022-09-12T19:55:04.855Z,93.68
2022-09-12T19:56:04.922Z,94.18
2022-09-12T19:57:04.765Z,94.18
2022-09-12T19:58:04.808Z,94.08
2022-09-12T19:59:04.729Z,93.37
2022-09-12T20:00:04.794Z,93.37
2022-09-12T20:01:04.772Z,93.32
2022-09-12T20:02:04.901Z,93.12
2022-09-12T20:03:04.691Z,93.21
2022-09-12T20:04:04.698Z,93.41
2022-09-12T20:05:04.690Z,93.12
2022-09-12T20:06:04.658Z,93.01
2022-09-12T20:07:04.642Z,93.21
2022-09-12T20:08:04.689Z,93.21
2022-09-12T20:09:04.600Z,93.21
2022-09-12T20:10:04.857Z,93.72
2022-09-12T20:11:04.623Z,94.02
2022-09-12T20:12:04.856Z,93.76
2022-09-12T20:13:04.577Z,93.96
2022-09-12T20:14:04.611Z,93.96
2022-09-12T20:15:04.555Z,94.47
2022-09-12T20:16:04.912Z,94.47
2022-09-12T20:17:05.073Z,94.17
2022-09-12T20:18:04.666Z,94.07
2022-09-12T20:19:04.617Z,94.37
2022-09-12T20:20:04.544Z,94.37
2022-09-12T20:21:04.512Z,94.17
2022-09-12T20:22:04.562Z,94.47
2022-09-12T20:23:04.672Z,94.07
2022-09-12T20:24:04.471Z,94.21
2022-09-12T20:25:04.468Z,94.31
2022-09-12T20:26:04.514Z,94.31
2022-09-12T20:27:04.411Z,94.82
2022-09-12T20:28:04.471Z,94.62
2022-09-12T20:29:04.434Z,95.43
2022-09-12T20:30:04.405Z,95.32
2022-09-12T20:31:04.613Z,95.63
2022-09-12T20:32:04.391Z,95.63
2022-09-12T20:33:04.726Z,95.93
2022-09-12T20:34:04.370Z,95.63
2022-09-12T20:35:04.354Z,96.13
2022-09-12T20:36:04.358Z,96.34
2022-09-12T20:37:04.356Z,96.13
2022-09-12T20:38:04.535Z,96.03
2022-09-12T20:39:04.315Z,96.03
2022-09-12T20:40:04.340Z,95.73
2022-09-12T20:41:04.311Z,95.93
2022-09-12T20:42:04.336Z,96.23
2022-09-12T20:43:04.267Z,96.34
2022-09-12T20:44:04.303Z,96.13
2022-09-12T20:45:04.658Z,96.03
2022-09-12T20:46:04.288Z,91.78
2022-09-12T20:47:04.265Z,93.81
2022-09-12T20:48:04.207Z,93.60
2022-09-12T20:49:04.227Z,94.21
2022-09-12T20:50:04.399Z,94.67
2022-09-12T20:51:04.213Z,94.17
2022-09-12T20:52:04.174Z,93.26
2022-09-12T20:53:04.366Z,93.05
2022-09-12T20:54:04.169Z,92.05
2022-09-12T20:55:04.176Z,92.14
2022-09-12T20:56:04.367Z,92.25
2022-09-12T20:57:04.161Z,92.25
2022-09-12T20:58:04.134Z,92.14
2022-09-12T20:59:04.145Z,90.94
2022-09-12T21:00:04.127Z,91.14
2022-09-12T21:01:04.167Z,90.83
2022-09-12T21:02:04.278Z,88.10
2022-09-12T21:03:04.135Z,89.07
2022-09-12T21:04:04.087Z,89.28
2022-09-12T21:05:04.046Z,89.28
2022-09-12T21:06:04.006Z,88.26
2022-09-12T21:07:04.021Z,88.06
2022-09-12T21:08:04.277Z,87.15
2022-09-12T21:09:04.268Z,87.96
2022-09-12T21:10:04.148Z,87.01
2022-09-12T21:11:04.010Z,86.10
2022-09-12T21:12:04.029Z,87.01
2022-09-12T21:13:04.031Z,87.12
2022-09-12T21:14:03.993Z,87.32
2022-09-12T21:15:03.923Z,85.50
2022-09-12T21:16:04.019Z,85.19
2022-09-12T21:17:03.937Z,84.05
2022-09-12T21:18:03.960Z,85.16
2022-09-12T21:19:04.101Z,85.25
2022-09-12T21:20:06.907Z,84.81
2022-09-12T21:21:04.090Z,85.11
2022-09-12T21:22:04.396Z,84.41
2022-09-12T21:23:03.928Z,84.41
2022-09-12T21:24:03.831Z,84.71
2022-09-12T21:25:03.839Z,85.31
2022-09-12T21:26:03.897Z,84.61
2022-09-12T21:27:04.686Z,84.41
2022-09-12T21:28:03.830Z,84.11
2022-09-12T21:29:03.836Z,83.10
2022-09-12T21:30:03.832Z,83.30
2022-09-12T21:31:03.804Z,83.50
2022-09-12T21:32:03.836Z,83.60
2022-09-12T21:33:03.787Z,83.10
2022-09-12T21:34:03.797Z,83.70
2022-09-12T21:35:03.714Z,81.79
2022-09-12T21:36:03.768Z,83.70
2022-09-12T21:37:03.743Z,83.91
2022-09-12T21:38:03.794Z,84.01
2022-09-12T21:39:03.704Z,83.91
2022-09-12T21:40:03.790Z,83.80
2022-09-12T21:41:03.712Z,82.90
2022-09-12T21:42:03.684Z,84.41
2022-09-12T21:43:03.676Z,83.00
2022-09-12T21:44:03.994Z,80.88
2022-09-12T21:45:03.721Z,82.39
2022-09-12T21:46:03.775Z,81.99
2022-09-12T21:47:03.680Z,82.29
2022-09-12T21:48:03.625Z,82.29
2022-09-12T21:49:03.636Z,80.58
2022-09-12T21:50:03.704Z,81.08
2022-09-12T21:51:03.594Z,81.38
2022-09-12T21:52:03.630Z,81.55
2022-09-12T21:53:03.621Z,81.65
2022-09-12T21:54:03.551Z,79.23
2022-09-12T21:55:03.510Z,80.24
2022-09-12T21:56:03.613Z,78.92
2022-09-12T21:57:03.604Z,79.63
2022-09-12T21:58:03.532Z,81.61
2022-09-12T21:59:04.103Z,82.11
2022-09-12T22:00:03.489Z,81.51
2022-09-12T22:01:03.665Z,81.10
2022-09-12T22:02:03.617Z,81.30
2022-09-12T22:03:03.487Z,82.21
2022-09-12T22:04:03.587Z,81.55
2022-09-12T22:05:03.502Z,81.85
2022-09-12T22:06:03.497Z,81.24
2022-09-12T22:07:03.445Z,81.95
2022-09-12T22:08:03.464Z,81.85
2022-09-12T22:09:03.412Z,81.65
2022-09-12T22:10:03.440Z,82.56
2022-09-12T22:11:03.448Z,79.33
2022-09-12T22:12:03.463Z,80.74
2022-09-12T22:13:03.451Z,80.04
2022-09-12T22:14:03.719Z,78.72
2022-09-12T22:15:17.416Z,79.43
2022-09-12T22:16:03.824Z,81.04
2022-09-12T22:17:03.351Z,81.45
2022-09-12T22:18:03.345Z,81.30
2022-09-12T22:19:03.314Z,81.75
2022-09-12T22:20:03.527Z,81.45
2022-09-12T22:21:03.505Z,80.64
2022-09-12T22:22:03.301Z,80.74
2022-09-12T22:23:03.346Z,80.84
2022-09-12T22:24:03.459Z,81.35
2022-09-12T22:25:03.276Z,81.24
2022-09-12T22:26:03.244Z,82.86
2022-09-12T22:27:03.244Z,82.35
2022-09-12T22:28:03.340Z,82.29
2022-09-12T22:29:03.285Z,82.19
2022-09-12T22:30:03.208Z,82.70
2022-09-12T22:31:03.272Z,83.60
2022-09-12T22:32:03.462Z,83.20
2022-09-12T22:33:03.186Z,81.68
2022-09-12T22:34:03.186Z,81.18
2022-09-12T22:35:03.283Z,81.89
2022-09-12T22:36:03.124Z,81.48
2022-09-12T22:37:03.143Z,82.19
2022-09-12T22:38:03.601Z,82.59
2022-09-12T22:39:03.110Z,81.48
2022-09-12T22:40:03.291Z,81.59
2022-09-12T22:41:03.123Z,81.59
2022-09-12T22:42:03.113Z,82.29
2022-09-12T22:43:03.391Z,80.98
2022-09-12T22:44:03.311Z,81.59
2022-09-12T22:45:03.236Z,82.79
2022-09-12T22:46:03.119Z,81.59
2022-09-12T22:47:03.051Z,81.38
2022-09-12T22:48:06.143Z,81.79
2022-09-12T22:49:03.042Z,80.58
2022-09-12T22:50:03.040Z,81.99
2022-09-12T22:51:02.981Z,82.70
2022-09-12T22:52:02.998Z,82.19
2022-09-12T22:53:03.209Z,82.90
2022-09-12T22:54:03.389Z,79.67
2022-09-12T22:55:03.099Z,81.89
2022-09-12T22:56:02.982Z,82.59
2022-09-12T22:57:02.908Z,81.68
2022-09-12T22:58:03.118Z,79.77
2022-09-12T22:59:02.925Z,80.68
2022-09-12T23:00:02.876Z,82.29
2022-09-12T23:01:02.980Z,81.89
2022-09-12T23:02:02.921Z,82.29
2022-09-12T23:03:03.023Z,82.59
2022-09-12T23:04:02.922Z,79.67
2022-09-12T23:05:02.838Z,80.58
2022-09-12T23:06:02.951Z,81.99
2022-09-12T23:07:02.862Z,82.59
2022-09-12T23:08:02.935Z,82.29
2022-09-12T23:09:02.894Z,82.90
2022-09-12T23:10:02.769Z,81.59
2022-09-12T23:11:02.910Z,80.07
2022-09-12T23:12:02.794Z,81.18
2022-09-12T23:13:02.899Z,81.18
2022-09-12T23:14:02.819Z,81.38
2022-09-12T23:15:02.837Z,82.59
2022-09-12T23:16:02.812Z,82.56
2022-09-12T23:17:02.713Z,82.25
2022-09-12T23:18:05.029Z,83.66
2022-09-12T23:19:02.900Z,83.40
2022-09-12T23:20:02.752Z,82.09
2022-09-12T23:21:02.918Z,81.68
2022-09-12T23:22:02.725Z,81.08
2022-09-12T23:23:02.818Z,80.98
2022-09-12T23:24:02.699Z,81.38
2022-09-12T23:25:02.690Z,81.08
2022-09-12T23:26:02.663Z,80.78
2022-09-12T23:27:02.637Z,82.15
2022-09-12T23:28:02.626Z,81.45
2022-09-12T23:29:02.905Z,82.25
2022-09-12T23:30:02.621Z,81.45
2022-09-12T23:31:02.693Z,81.45
2022-09-12T23:32:02.964Z,79.83
2022-09-12T23:33:02.577Z,80.33
2022-09-12T23:34:02.736Z,80.54
2022-09-12T23:35:02.728Z,81.55
2022-09-12T23:36:02.739Z,81.55
2022-09-12T23:37:02.534Z,81.75
2022-09-12T23:38:02.611Z,79.83
2022-09-12T23:39:02.687Z,80.44
2022-09-12T23:40:02.609Z,82.05
2022-09-12T23:41:02.525Z,80.04
2022-09-12T23:42:02.595Z,80.33
2022-09-12T23:43:02.922Z,80.54
2022-09-12T23:44:02.494Z,79.23
2022-09-12T23:45:02.469Z,80.84
2022-09-12T23:46:02.528Z,79.83
2022-09-12T23:47:02.622Z,80.04
2022-09-12T23:48:02.423Z,80.44
2022-09-12T23:49:02.627Z,80.74
2022-09-12T23:50:03.346Z,79.73
2022-09-12T23:51:02.405Z,79.73
2022-09-12T23:52:02.382Z,80.24
2022-09-12T23:53:02.413Z,81.04
2022-09-12T23:54:02.472Z,81.45
2022-09-12T23:55:02.381Z,80.74
2022-09-12T23:56:02.361Z,80.54
2022-09-12T23:57:02.383Z,81.85
2022-09-12T23:58:02.449Z,80.24
2022-09-12T23:59:02.281Z,80.74
